createdAt,value
2019-03-08T00:00:00.842Z,25.28
2019-03-08T00:01:00.824Z,25.27
2019-03-08T00:02:00.811Z,25.25
2019-03-08T00:03:00.787Z,25.24
2019-03-08T00:04:01.146Z,25.2
2019-03-08T00:05:00.737Z,25.16
2019-03-08T00:06:00.724Z,25.27
2019-03-08T00:07:00.708Z,25.27
2019-03-08T00:08:00.678Z,25.24
2019-03-08T00:09:00.646Z,25.27
2019-03-08T00:10:00.618Z,25.2
2019-03-08T00:11:00.625Z,25.2
2019-03-08T00:12:02.093Z,25.25
2019-03-08T00:13:00.578Z,25.24
2019-03-08T00:14:00.535Z,25.16
2019-03-08T00:15:00.530Z,25.2
2019-03-08T00:16:00.509Z,25.19
2019-03-08T00:17:00.480Z,25.19
2019-03-08T00:18:00.451Z,25.2
2019-03-08T00:19:00.439Z,25.15
2019-03-08T00:20:00.376Z,25.16
2019-03-08T00:21:00.404Z,25.16
2019-03-08T00:22:00.366Z,25.17
2019-03-08T00:23:00.352Z,25.15
2019-03-08T00:24:00.338Z,25.2
2019-03-08T00:25:00.318Z,25.2
2019-03-08T00:26:00.303Z,25.19
2019-03-08T00:27:00.280Z,25.19
2019-03-08T00:28:00.845Z,25.2
2019-03-08T00:29:00.223Z,25.17
2019-03-08T00:30:00.307Z,25.13
2019-03-08T00:31:00.168Z,25.22
2019-03-08T00:32:00.153Z,25.2
2019-03-08T00:33:00.131Z,25.2
2019-03-08T00:34:00.120Z,25.16
2019-03-08T00:35:00.118Z,25.2
2019-03-08T00:36:00.326Z,25.19
2019-03-08T00:37:00.045Z,25.2
2019-03-08T00:38:00.054Z,25.19
2019-03-08T00:39:00.019Z,25.2
2019-03-08T00:39:59.988Z,25.19
2019-03-08T00:40:59.966Z,25.17
2019-03-08T00:41:59.928Z,25.17
2019-03-08T00:42:59.929Z,25.2
2019-03-08T00:44:00.170Z,25.16
2019-03-08T00:44:59.884Z,25.2
2019-03-08T00:45:59.850Z,25.12
2019-03-08T00:46:59.846Z,25.16
2019-03-08T00:47:59.822Z,25.15
2019-03-08T00:48:59.799Z,25.1
2019-03-08T00:49:59.767Z,25.17
2019-03-08T00:50:59.747Z,25.17
2019-03-08T00:51:59.967Z,25.17
2019-03-08T00:52:59.703Z,25.09
2019-03-08T00:53:59.679Z,25.09
2019-03-08T00:54:59.656Z,25.17
2019-03-08T00:55:59.651Z,25.13
2019-03-08T00:56:59.628Z,25.07
2019-03-08T00:57:59.609Z,25.16
2019-03-08T00:58:59.565Z,25.05
2019-03-08T00:59:59.565Z,25.15
2019-03-08T01:00:59.538Z,25.06
2019-03-08T01:01:59.546Z,25.06
2019-03-08T01:02:59.489Z,25.05
2019-03-08T01:03:59.458Z,25.15
2019-03-08T01:04:59.449Z,25.13
2019-03-08T01:05:59.435Z,25.02
2019-03-08T01:06:59.415Z,25.12
2019-03-08T01:07:59.611Z,25.06
2019-03-08T01:08:59.360Z,25.07
2019-03-08T01:09:59.388Z,25.01
2019-03-08T01:10:59.335Z,25.09
2019-03-08T01:11:59.294Z,25.09
2019-03-08T01:12:59.284Z,25.12
2019-03-08T01:13:59.236Z,25.09
2019-03-08T01:14:59.248Z,25.13
2019-03-08T01:15:59.414Z,25.09
2019-03-08T01:16:59.192Z,25.02
2019-03-08T01:17:58.929Z,25.15
2019-03-08T01:18:59.161Z,25.1
2019-03-08T01:19:59.126Z,25.07
2019-03-08T01:20:59.105Z,25.06
2019-03-08T01:21:59.070Z,25.05
2019-03-08T01:22:59.246Z,25.07
2019-03-08T01:23:58.803Z,25.07
2019-03-08T01:24:59.027Z,25.02
2019-03-08T01:25:58.994Z,25.12
2019-03-08T01:26:58.962Z,25.1
2019-03-08T01:27:58.948Z,25.05
2019-03-08T01:28:59.046Z,25.12
2019-03-08T01:29:58.914Z,25.07
2019-03-08T01:30:58.873Z,25.1
2019-03-08T01:31:59.145Z,25.07
2019-03-08T01:32:58.833Z,25.05
2019-03-08T01:33:58.847Z,25.09
2019-03-08T01:34:58.807Z,25.07
2019-03-08T01:35:58.785Z,25.02
2019-03-08T01:36:58.752Z,25.07
2019-03-08T01:37:58.717Z,25.07
2019-03-08T01:38:58.713Z,25.02
2019-03-08T01:39:58.937Z,25.07
2019-03-08T01:40:58.676Z,25.07
2019-03-08T01:41:58.664Z,25.05
2019-03-08T01:42:58.676Z,25.02
2019-03-08T01:43:58.607Z,25.09
2019-03-08T01:44:58.591Z,25.1
2019-03-08T01:45:58.569Z,25.09
2019-03-08T01:46:58.532Z,25.09
2019-03-08T01:47:58.765Z,25.09
2019-03-08T01:48:58.505Z,25.1
2019-03-08T01:49:58.487Z,25.09
2019-03-08T01:50:58.443Z,25.12
2019-03-08T01:51:58.429Z,25.09
2019-03-08T01:52:58.406Z,25.07
2019-03-08T01:53:58.399Z,25.06
2019-03-08T01:54:58.380Z,25.05
2019-03-08T01:55:58.652Z,25.07
2019-03-08T01:56:58.317Z,25.02
2019-03-08T01:57:58.329Z,25.05
2019-03-08T01:58:58.296Z,25.07
2019-03-08T01:59:58.258Z,25.09
2019-03-08T02:00:58.251Z,25.07
2019-03-08T02:01:58.210Z,25.05
2019-03-08T02:02:58.198Z,25.09
2019-03-08T02:03:58.429Z,25.05
2019-03-08T02:04:58.152Z,25.02
2019-03-08T02:05:58.119Z,25.07
2019-03-08T02:06:58.118Z,24.98
2019-03-08T02:07:58.089Z,25.06
2019-03-08T02:08:58.069Z,25.05
2019-03-08T02:09:58.042Z,25.01
2019-03-08T02:10:58.013Z,25.06
2019-03-08T02:11:58.323Z,25.05
2019-03-08T02:12:57.979Z,25.01
2019-03-08T02:13:57.955Z,25
2019-03-08T02:14:57.931Z,25.02
2019-03-08T02:15:57.955Z,25.05
2019-03-08T02:16:57.887Z,25
2019-03-08T02:17:57.878Z,25.07
2019-03-08T02:18:57.835Z,25.05
2019-03-08T02:19:58.025Z,25
2019-03-08T02:21:06.359Z,24.98
2019-03-08T02:21:57.796Z,25.09
2019-03-08T02:22:57.751Z,25.02
2019-03-08T02:23:57.736Z,25.02
2019-03-08T02:24:57.725Z,25.05
2019-03-08T02:25:57.711Z,25
2019-03-08T02:26:57.431Z,24.98
2019-03-08T02:27:57.981Z,25.05
2019-03-08T02:28:57.626Z,25.05
2019-03-08T02:29:57.610Z,25.02
2019-03-08T02:30:57.619Z,25
2019-03-08T02:31:57.564Z,25.05
2019-03-08T02:32:57.542Z,25.01
2019-03-08T02:33:57.516Z,25.06
2019-03-08T02:34:57.636Z,25.02
2019-03-08T02:35:57.635Z,25.01
2019-03-08T02:36:57.466Z,25.02
2019-03-08T02:37:57.427Z,25.01
2019-03-08T02:38:57.431Z,25
2019-03-08T02:39:57.402Z,25.02
2019-03-08T02:40:57.377Z,25.01
2019-03-08T02:41:57.352Z,25
2019-03-08T02:42:57.351Z,25.02
2019-03-08T02:43:57.572Z,25.01
2019-03-08T02:44:57.295Z,25
2019-03-08T02:45:57.253Z,25.05
2019-03-08T02:46:57.235Z,25.05
2019-03-08T02:47:57.300Z,25.02
2019-03-08T02:48:57.199Z,25.06
2019-03-08T02:49:57.185Z,25
2019-03-08T02:50:57.154Z,25.01
2019-03-08T02:51:57.433Z,25.1
2019-03-08T02:52:57.117Z,25.01
2019-03-08T02:53:57.096Z,25.05
2019-03-08T02:54:57.062Z,25.06
2019-03-08T02:55:57.053Z,25
2019-03-08T02:56:57.021Z,25.02
2019-03-08T02:57:57.019Z,25
2019-03-08T02:58:56.989Z,25.02
2019-03-08T02:59:57.088Z,25
2019-03-08T03:00:56.945Z,25.02
2019-03-08T03:01:56.921Z,25.05
2019-03-08T03:02:56.900Z,25.05
2019-03-08T03:03:56.877Z,25.02
2019-03-08T03:04:56.602Z,25.05
2019-03-08T03:05:56.835Z,25.09
2019-03-08T03:06:56.828Z,25.06
2019-03-08T03:07:57.230Z,25.06
2019-03-08T03:08:56.771Z,25.02
2019-03-08T03:09:56.747Z,25.06
2019-03-08T03:10:56.728Z,25.05
2019-03-08T03:11:56.735Z,25.1
2019-03-08T03:12:56.688Z,25.1
2019-03-08T03:13:56.662Z,25.05
2019-03-08T03:14:56.633Z,25
2019-03-08T03:15:56.920Z,25.09
2019-03-08T03:16:56.593Z,25.07
2019-03-08T03:17:56.566Z,25.05
2019-03-08T03:18:56.534Z,25.07
2019-03-08T03:19:56.625Z,25.05
2019-03-08T03:20:56.505Z,25.02
2019-03-08T03:21:56.477Z,25.01
2019-03-08T03:22:56.484Z,24.98
2019-03-08T03:23:56.659Z,25.05
2019-03-08T03:24:56.438Z,25
2019-03-08T03:25:56.397Z,25.02
2019-03-08T03:26:56.383Z,25.02
2019-03-08T03:27:56.359Z,25
2019-03-08T03:28:56.332Z,25
2019-03-08T03:29:56.293Z,25.01
2019-03-08T03:30:56.294Z,25.02
2019-03-08T03:31:56.728Z,25.01
2019-03-08T03:32:56.269Z,24.97
2019-03-08T03:33:56.217Z,24.98
2019-03-08T03:34:56.201Z,25.02
2019-03-08T03:35:56.186Z,25.02
2019-03-08T03:36:56.166Z,25.01
2019-03-08T03:37:56.164Z,25.06
2019-03-08T03:38:56.115Z,25.02
2019-03-08T03:39:56.456Z,25.05
2019-03-08T03:40:56.071Z,25.01
2019-03-08T03:41:56.054Z,24.95
2019-03-08T03:42:56.046Z,25.02
2019-03-08T03:43:56.003Z,24.94
2019-03-08T03:44:55.982Z,24.98
2019-03-08T03:45:55.978Z,25
2019-03-08T03:46:55.940Z,25
2019-03-08T03:47:56.403Z,25
2019-03-08T03:48:55.894Z,24.98
2019-03-08T03:49:55.883Z,25.02
2019-03-08T03:50:55.862Z,25.02
2019-03-08T03:51:55.826Z,25.01
2019-03-08T03:52:55.819Z,25
2019-03-08T03:53:55.791Z,25.02
2019-03-08T03:54:55.791Z,25.07
2019-03-08T03:55:56.136Z,25.01
2019-03-08T03:56:56.022Z,24.98
2019-03-08T03:57:55.705Z,25.02
2019-03-08T03:58:55.693Z,25.01
2019-03-08T03:59:55.676Z,24.97
2019-03-08T04:00:55.641Z,24.97
2019-03-08T04:01:55.602Z,24.95
2019-03-08T04:02:55.598Z,24.98
2019-03-08T04:03:55.978Z,25.01
2019-03-08T04:04:55.566Z,25.01
2019-03-08T04:05:55.532Z,24.92
2019-03-08T04:06:55.503Z,24.94
2019-03-08T04:07:55.501Z,24.98
2019-03-08T04:08:55.476Z,25
2019-03-08T04:09:55.455Z,24.92
2019-03-08T04:10:55.412Z,24.92
2019-03-08T04:11:55.912Z,24.97
2019-03-08T04:12:55.376Z,24.95
2019-03-08T04:13:55.368Z,24.92
2019-03-08T04:14:55.341Z,24.92
2019-03-08T04:15:55.323Z,24.95
2019-03-08T04:16:55.308Z,24.91
2019-03-08T04:17:55.073Z,24.91
2019-03-08T04:18:55.252Z,24.95
2019-03-08T04:19:55.702Z,24.98
2019-03-08T04:20:55.215Z,24.91
2019-03-08T04:21:55.190Z,24.92
2019-03-08T04:22:55.177Z,24.92
2019-03-08T04:23:55.134Z,24.94
2019-03-08T04:24:55.114Z,24.91
2019-03-08T04:25:55.099Z,24.92
2019-03-08T04:26:55.084Z,24.95
2019-03-08T04:27:55.560Z,24.97
2019-03-08T04:28:55.037Z,24.91
2019-03-08T04:29:56.622Z,24.97
2019-03-08T04:30:54.996Z,24.95
2019-03-08T04:31:54.974Z,24.92
2019-03-08T04:32:54.954Z,24.94
2019-03-08T04:33:54.926Z,24.95
2019-03-08T04:34:54.898Z,24.95
2019-03-08T04:35:55.303Z,24.94
2019-03-08T04:36:54.876Z,24.98
2019-03-08T04:37:54.831Z,24.92
2019-03-08T04:38:54.809Z,24.9
2019-03-08T04:39:54.805Z,24.97
2019-03-08T04:40:54.801Z,24.91
2019-03-08T04:41:54.759Z,24.92
2019-03-08T04:42:54.725Z,24.95
2019-03-08T04:43:54.937Z,24.95
2019-03-08T04:44:54.684Z,24.92
2019-03-08T04:45:54.677Z,24.94
2019-03-08T04:46:54.667Z,24.91
2019-03-08T04:47:54.643Z,24.94
2019-03-08T04:48:54.595Z,24.91
2019-03-08T04:49:54.590Z,24.94
2019-03-08T04:50:54.557Z,24.95
2019-03-08T04:51:55.821Z,24.95
2019-03-08T04:52:54.513Z,24.92
2019-03-08T04:53:54.493Z,24.88
2019-03-08T04:54:54.522Z,24.94
2019-03-08T04:55:54.539Z,24.91
2019-03-08T04:56:54.429Z,24.95
2019-03-08T04:57:54.401Z,24.94
2019-03-08T04:58:54.396Z,24.91
2019-03-08T04:59:54.617Z,24.88
2019-03-08T05:00:54.349Z,24.94
2019-03-08T05:01:54.309Z,24.88
2019-03-08T05:02:54.294Z,24.95
2019-03-08T05:03:54.276Z,24.92
2019-03-08T05:04:54.263Z,24.94
2019-03-08T05:05:54.243Z,24.95
2019-03-08T05:06:54.214Z,24.98
2019-03-08T05:07:55.195Z,24.92
2019-03-08T05:08:55.134Z,24.87
2019-03-08T05:09:54.151Z,24.95
2019-03-08T05:10:54.138Z,24.87
2019-03-08T05:11:54.090Z,24.92
2019-03-08T05:12:54.081Z,24.95
2019-03-08T05:13:54.092Z,24.94
2019-03-08T05:14:54.206Z,24.92
2019-03-08T05:15:54.017Z,24.91
2019-03-08T05:16:54.006Z,24.91
2019-03-08T05:17:53.971Z,24.94
2019-03-08T05:18:53.974Z,24.92
2019-03-08T05:19:53.936Z,24.88
2019-03-08T05:20:53.902Z,24.97
2019-03-08T05:21:53.875Z,24.91
2019-03-08T05:22:54.055Z,24.94
2019-03-08T05:23:53.849Z,24.98
2019-03-08T05:24:53.829Z,24.88
2019-03-08T05:25:53.790Z,24.88
2019-03-08T05:26:53.785Z,24.87
2019-03-08T05:27:54.061Z,24.9
2019-03-08T05:28:54.043Z,24.92
2019-03-08T05:29:54.037Z,24.97
2019-03-08T05:30:53.949Z,24.94
2019-03-08T05:31:53.964Z,24.98
2019-03-08T05:32:53.821Z,24.91
2019-03-08T05:33:53.829Z,24.97
2019-03-08T05:34:53.786Z,24.92
2019-03-08T05:35:53.766Z,24.97
2019-03-08T05:36:53.749Z,24.94
2019-03-08T05:37:53.738Z,24.98
2019-03-08T05:38:53.705Z,24.94
2019-03-08T05:39:53.493Z,24.88
2019-03-08T05:40:53.474Z,24.92
2019-03-08T05:41:53.446Z,25
2019-03-08T05:42:53.498Z,24.98
2019-03-08T05:43:53.410Z,24.91
2019-03-08T05:44:53.387Z,24.95
2019-03-08T05:45:53.346Z,24.92
2019-03-08T05:46:53.554Z,25
2019-03-08T05:47:53.369Z,24.95
2019-03-08T05:48:53.306Z,25
2019-03-08T05:49:53.275Z,24.98
2019-03-08T05:50:53.273Z,24.98
2019-03-08T05:51:53.237Z,24.97
2019-03-08T05:52:54.016Z,24.98
2019-03-08T05:53:53.202Z,24.97
2019-03-08T05:54:53.509Z,25
2019-03-08T05:55:53.431Z,25.01
2019-03-08T05:56:53.151Z,25.05
2019-03-08T05:57:53.105Z,24.98
2019-03-08T05:58:53.070Z,25
2019-03-08T05:59:53.121Z,25.02
2019-03-08T06:00:53.047Z,24.97
2019-03-08T06:01:53.142Z,24.97
2019-03-08T06:02:53.683Z,24.98
2019-03-08T06:03:53.131Z,25.06
2019-03-08T06:04:52.953Z,25.02
2019-03-08T06:05:53.041Z,25
2019-03-08T06:06:53.816Z,24.98
2019-03-08T06:07:53.826Z,25
2019-03-08T06:08:53.831Z,25.01
2019-03-08T06:09:53.156Z,25
2019-03-08T06:10:53.262Z,25.02
2019-03-08T06:11:53.001Z,25.02
2019-03-08T06:12:53.178Z,25.06
2019-03-08T06:13:52.993Z,25.05
2019-03-08T06:14:52.977Z,25.07
2019-03-08T06:15:52.946Z,25.06
2019-03-08T06:16:52.817Z,25.06
2019-03-08T06:17:53.474Z,25.05
2019-03-08T06:18:53.169Z,25.02
2019-03-08T06:19:52.846Z,25.07
2019-03-08T06:20:52.891Z,25.07
2019-03-08T06:21:52.822Z,25.09
2019-03-08T06:22:52.815Z,25.07
2019-03-08T06:23:52.765Z,25.07
2019-03-08T06:24:52.754Z,25.05
2019-03-08T06:25:52.949Z,25.07
2019-03-08T06:26:52.666Z,25.06
2019-03-08T06:27:52.642Z,25.05
2019-03-08T06:28:52.635Z,25.05
2019-03-08T06:29:52.610Z,25.09
2019-03-08T06:30:52.675Z,25.12
2019-03-08T06:31:52.671Z,25.05
2019-03-08T06:32:52.710Z,25.1
2019-03-08T06:33:52.976Z,25.1
2019-03-08T06:34:52.486Z,25.02
2019-03-08T06:35:52.495Z,25.1
2019-03-08T06:36:52.576Z,25.02
2019-03-08T06:37:52.403Z,25.19
2019-03-08T06:38:52.396Z,25.12
2019-03-08T06:39:52.430Z,25.05
2019-03-08T06:40:52.123Z,25.05
2019-03-08T06:41:52.553Z,25.17
2019-03-08T06:42:51.988Z,25.06
2019-03-08T06:43:52.172Z,25.15
2019-03-08T06:44:52.157Z,25.16
2019-03-08T06:45:52.138Z,25.13
2019-03-08T06:46:51.888Z,25.13
2019-03-08T06:47:52.022Z,25.13
2019-03-08T06:48:52.004Z,25.06
2019-03-08T06:49:52.221Z,25.15
2019-03-08T06:50:51.973Z,25.12
2019-03-08T06:51:51.934Z,25.15
2019-03-08T06:52:51.947Z,25.07
2019-03-08T06:53:51.894Z,25.16
2019-03-08T06:54:51.874Z,25.15
2019-03-08T06:55:51.859Z,25.1
2019-03-08T06:56:52.027Z,25.15
2019-03-08T06:57:51.575Z,25.16
2019-03-08T06:58:51.865Z,25.12
2019-03-08T06:59:51.641Z,25.15
2019-03-08T07:00:51.887Z,25.16
2019-03-08T07:01:51.847Z,25.15
2019-03-08T07:02:51.781Z,25.07
2019-03-08T07:03:51.697Z,25.15
2019-03-08T07:04:51.987Z,25.19
2019-03-08T07:05:51.734Z,25.17
2019-03-08T07:06:51.600Z,25.17
2019-03-08T07:07:51.601Z,25.15
2019-03-08T07:08:51.602Z,25.15
2019-03-08T07:09:51.562Z,25.17
2019-03-08T07:10:51.618Z,25.16
2019-03-08T07:11:51.513Z,25.13
2019-03-08T07:12:52.091Z,25.12
2019-03-08T07:13:51.477Z,25.12
2019-03-08T07:14:51.444Z,25.16
2019-03-08T07:15:51.329Z,25.12
2019-03-08T07:16:51.685Z,25.16
2019-03-08T07:17:51.417Z,25.1
2019-03-08T07:18:51.872Z,25.16
2019-03-08T07:19:51.329Z,25.15
2019-03-08T07:20:51.723Z,25.05
2019-03-08T07:21:51.322Z,25.1
2019-03-08T07:22:51.387Z,25.12
2019-03-08T07:23:51.247Z,25.1
2019-03-08T07:24:51.227Z,25.06
2019-03-08T07:25:56.929Z,25.1
2019-03-08T07:26:51.367Z,25.05
2019-03-08T07:27:51.164Z,25.05
2019-03-08T07:28:51.649Z,25.07
2019-03-08T07:29:50.875Z,25.05
2019-03-08T07:30:59.987Z,25.01
2019-03-08T07:31:51.074Z,25.05
2019-03-08T07:32:51.185Z,25.06
2019-03-08T07:33:58.284Z,25.07
2019-03-08T07:34:51.047Z,25.07
2019-03-08T07:35:51.097Z,25.06
2019-03-08T07:36:51.257Z,25.1
2019-03-08T07:37:51.782Z,25.09
2019-03-08T07:38:51.008Z,25.07
2019-03-08T07:39:51.638Z,25.05
2019-03-08T07:40:51.453Z,25.07
2019-03-08T07:41:50.693Z,25
2019-03-08T07:42:50.849Z,25.01
2019-03-08T07:43:50.839Z,25.09
2019-03-08T07:44:51.152Z,25.01
2019-03-08T07:45:50.785Z,25.12
2019-03-08T07:46:50.760Z,24.98
2019-03-08T07:47:50.849Z,25.12
2019-03-08T07:48:50.742Z,25
2019-03-08T07:49:51.360Z,25.1
2019-03-08T07:50:51.777Z,25.09
2019-03-08T07:51:50.656Z,25.06
2019-03-08T07:52:50.781Z,25.06
2019-03-08T07:53:50.351Z,25.09
2019-03-08T07:54:57.397Z,25
2019-03-08T07:55:51.318Z,25.06
2019-03-08T07:56:51.130Z,25.13
2019-03-08T07:57:50.609Z,25.13
2019-03-08T07:58:50.670Z,25.15
2019-03-08T07:59:58.432Z,25.15
2019-03-08T08:00:51.043Z,25.16
2019-03-08T08:01:50.439Z,25.05
2019-03-08T08:02:50.408Z,25.19
2019-03-08T08:03:50.479Z,25.15
2019-03-08T08:04:50.361Z,25.15
2019-03-08T08:05:59.890Z,25.1
2019-03-08T08:06:50.306Z,25.2
2019-03-08T08:07:50.296Z,25.12
2019-03-08T08:08:56.637Z,25.15
2019-03-08T08:09:50.272Z,25.15
2019-03-08T08:10:50.782Z,25.13
2019-03-08T08:11:50.214Z,25.15
2019-03-08T08:12:50.196Z,25.13
2019-03-08T08:13:50.175Z,25.16
2019-03-08T08:14:50.133Z,25.19
2019-03-08T08:15:50.282Z,25.13
2019-03-08T08:16:50.587Z,25.2
2019-03-08T08:17:50.092Z,25.17
2019-03-08T08:18:50.174Z,25.2
2019-03-08T08:19:50.035Z,25.13
2019-03-08T08:20:50.014Z,25.2
2019-03-08T08:21:50.015Z,25.16
2019-03-08T08:22:49.982Z,25.17
2019-03-08T08:23:50.212Z,25.19
2019-03-08T08:24:50.281Z,25.24
2019-03-08T08:25:49.930Z,25.22
2019-03-08T08:26:49.882Z,25.13
2019-03-08T08:27:50.026Z,25.24
2019-03-08T08:28:55.941Z,25.27
2019-03-08T08:29:49.589Z,25.22
2019-03-08T08:30:49.885Z,25.3
2019-03-08T08:31:49.772Z,25.28
2019-03-08T08:32:50.094Z,25.2
2019-03-08T08:33:49.743Z,25.3
2019-03-08T08:34:49.725Z,25.24
2019-03-08T08:35:49.725Z,25.32
2019-03-08T08:36:49.672Z,25.3
2019-03-08T08:37:49.654Z,25.25
2019-03-08T08:38:49.411Z,25.24
2019-03-08T08:39:49.605Z,25.25
2019-03-08T08:40:49.939Z,25.28
2019-03-08T08:41:49.628Z,25.24
2019-03-08T08:42:49.546Z,25.32
2019-03-08T08:43:49.554Z,25.34
2019-03-08T08:44:49.504Z,25.3
2019-03-08T08:45:49.662Z,25.34
2019-03-08T08:46:49.896Z,25.32
2019-03-08T08:47:49.466Z,25.27
2019-03-08T08:48:50.346Z,25.32
2019-03-08T08:49:59.146Z,25.31
2019-03-08T08:50:49.393Z,25.28
2019-03-08T08:51:49.369Z,25.27
2019-03-08T08:52:49.083Z,25.31
2019-03-08T08:53:49.847Z,25.3
2019-03-08T08:54:49.282Z,25.34
2019-03-08T08:55:49.269Z,25.3
2019-03-08T08:56:49.910Z,25.32
2019-03-08T08:57:49.223Z,25.3
2019-03-08T08:58:49.261Z,25.27
2019-03-08T08:59:49.194Z,25.35
2019-03-08T09:00:49.179Z,25.31
2019-03-08T09:01:49.143Z,25.37
2019-03-08T09:02:49.118Z,25.24
2019-03-08T09:03:49.086Z,25.37
2019-03-08T09:04:49.581Z,25.37
2019-03-08T09:05:49.071Z,25.38
2019-03-08T09:06:49.023Z,25.42
2019-03-08T09:07:49.012Z,25.38
2019-03-08T09:08:49.837Z,25.42
2019-03-08T09:09:48.970Z,25.38
2019-03-08T09:10:49.367Z,25.35
2019-03-08T09:11:57.170Z,25.46
2019-03-08T09:12:49.268Z,25.38
2019-03-08T09:13:49.000Z,25.37
2019-03-08T09:14:49.540Z,25.37
2019-03-08T09:15:48.831Z,25.42
2019-03-08T09:16:48.826Z,25.46
2019-03-08T09:17:48.779Z,25.46
2019-03-08T09:18:48.776Z,25.44
2019-03-08T09:19:48.747Z,25.49
2019-03-08T09:20:49.269Z,25.44
2019-03-08T09:21:48.820Z,25.42
2019-03-08T09:22:48.684Z,25.49
2019-03-08T09:23:48.665Z,25.5
2019-03-08T09:24:48.643Z,25.49
2019-03-08T09:25:48.637Z,25.49
2019-03-08T09:26:48.593Z,25.53
2019-03-08T09:27:48.589Z,25.49
2019-03-08T09:28:49.151Z,25.5
2019-03-08T09:29:48.547Z,25.57
2019-03-08T09:30:48.573Z,25.56
2019-03-08T09:31:48.504Z,25.56
2019-03-08T09:32:49.120Z,25.57
2019-03-08T09:33:49.007Z,25.52
2019-03-08T09:34:48.430Z,25.54
2019-03-08T09:35:48.863Z,25.56
2019-03-08T09:36:48.765Z,25.54
2019-03-08T09:37:48.424Z,25.56
2019-03-08T09:38:48.345Z,25.5
2019-03-08T09:39:48.330Z,25.56
2019-03-08T09:40:48.346Z,25.52
2019-03-08T09:41:48.281Z,25.52
2019-03-08T09:42:48.354Z,25.52
2019-03-08T09:43:48.263Z,25.54
2019-03-08T09:44:48.404Z,25.5
2019-03-08T09:45:48.171Z,25.47
2019-03-08T09:46:49.346Z,25.44
2019-03-08T09:47:48.405Z,25.52
2019-03-08T09:48:53.562Z,25.44
2019-03-08T09:49:48.102Z,25.47
2019-03-08T09:50:48.212Z,25.49
2019-03-08T09:51:48.058Z,25.49
2019-03-08T09:52:48.211Z,25.49
2019-03-08T09:53:48.094Z,25.5
2019-03-08T09:54:48.367Z,25.49
2019-03-08T09:55:47.980Z,25.49
2019-03-08T09:56:47.952Z,25.37
2019-03-08T09:57:48.381Z,25.43
2019-03-08T09:58:47.908Z,25.44
2019-03-08T09:59:47.887Z,25.49
2019-03-08T10:00:50.525Z,25.43
2019-03-08T10:01:47.858Z,25.38
2019-03-08T10:02:47.821Z,25.49
2019-03-08T10:03:51.093Z,25.47
2019-03-08T10:04:47.788Z,25.47
2019-03-08T10:05:47.826Z,25.52
2019-03-08T10:06:47.515Z,25.47
2019-03-08T10:07:48.379Z,25.46
2019-03-08T10:08:48.188Z,25.53
2019-03-08T10:09:47.685Z,25.39
2019-03-08T10:10:47.675Z,25.43
2019-03-08T10:11:47.385Z,25.46
2019-03-08T10:12:47.674Z,25.47
2019-03-08T10:13:47.594Z,25.5
2019-03-08T10:14:47.631Z,25.49
2019-03-08T10:15:47.300Z,25.46
2019-03-08T10:16:47.906Z,25.53
2019-03-08T10:17:47.494Z,25.5
2019-03-08T10:18:47.771Z,25.53
2019-03-08T10:19:47.866Z,25.54
2019-03-08T10:20:47.771Z,25.62
2019-03-08T10:21:48.167Z,25.64
2019-03-08T10:22:47.173Z,25.57
2019-03-08T10:23:47.480Z,25.57
2019-03-08T10:24:47.918Z,25.62
2019-03-08T10:25:47.361Z,25.62
2019-03-08T10:26:47.389Z,25.62
2019-03-08T10:27:47.814Z,25.68
2019-03-08T10:28:47.297Z,25.67
2019-03-08T10:29:47.278Z,25.67
2019-03-08T10:30:47.509Z,25.71
2019-03-08T10:31:47.218Z,25.72
2019-03-08T10:32:47.495Z,25.67
2019-03-08T10:33:51.356Z,25.71
2019-03-08T10:34:47.158Z,25.67
2019-03-08T10:35:47.123Z,25.64
2019-03-08T10:36:47.099Z,25.67
2019-03-08T10:37:47.091Z,25.64
2019-03-08T10:38:48.653Z,25.67
2019-03-08T10:39:47.030Z,25.67
2019-03-08T10:40:47.341Z,25.59
2019-03-08T10:41:47.092Z,25.64
2019-03-08T10:42:47.166Z,25.64
2019-03-08T10:43:46.940Z,25.61
2019-03-08T10:44:47.098Z,25.62
2019-03-08T10:45:46.968Z,25.62
2019-03-08T10:46:46.937Z,25.68
2019-03-08T10:47:55.567Z,25.65
2019-03-08T10:48:47.045Z,25.65
2019-03-08T10:49:54.823Z,25.68
2019-03-08T10:50:46.851Z,25.68
2019-03-08T10:51:46.774Z,25.64
2019-03-08T10:52:47.447Z,25.67
2019-03-08T10:53:46.540Z,25.72
2019-03-08T10:54:46.723Z,25.74
2019-03-08T10:55:46.587Z,25.82
2019-03-08T10:56:46.934Z,25.72
2019-03-08T10:57:46.713Z,25.75
2019-03-08T10:58:46.668Z,25.72
2019-03-08T10:59:46.627Z,25.74
2019-03-08T11:00:46.604Z,25.75
2019-03-08T11:01:46.562Z,25.8
2019-03-08T11:02:48.142Z,25.86
2019-03-08T11:03:46.551Z,25.74
2019-03-08T11:04:46.717Z,25.84
2019-03-08T11:05:46.268Z,25.8
2019-03-08T11:06:46.465Z,25.82
2019-03-08T11:07:46.479Z,25.79
2019-03-08T11:08:46.312Z,25.82
2019-03-08T11:09:46.529Z,25.74
2019-03-08T11:10:48.400Z,25.83
2019-03-08T11:11:46.609Z,25.79
2019-03-08T11:12:46.622Z,25.77
2019-03-08T11:13:48.355Z,25.72
2019-03-08T11:14:46.316Z,25.72
2019-03-08T11:15:46.914Z,25.74
2019-03-08T11:16:48.277Z,25.65
2019-03-08T11:17:55.314Z,25.72
2019-03-08T11:18:46.217Z,25.83
2019-03-08T11:19:46.225Z,25.8
2019-03-08T11:20:46.555Z,25.75
2019-03-08T11:21:46.145Z,25.72
2019-03-08T11:22:46.133Z,25.72
2019-03-08T11:23:46.099Z,25.71
2019-03-08T11:24:46.082Z,25.67
2019-03-08T11:25:46.083Z,25.69
2019-03-08T11:26:46.043Z,25.71
2019-03-08T11:27:46.019Z,25.65
2019-03-08T11:28:46.190Z,25.65
2019-03-08T11:29:45.957Z,25.59
2019-03-08T11:30:53.688Z,25.64
2019-03-08T11:31:45.943Z,25.64
2019-03-08T11:32:46.394Z,25.64
2019-03-08T11:33:45.870Z,25.71
2019-03-08T11:34:54.482Z,25.75
2019-03-08T11:35:45.844Z,25.72
2019-03-08T11:36:46.128Z,25.75
2019-03-08T11:37:45.833Z,25.79
2019-03-08T11:38:45.826Z,25.75
2019-03-08T11:39:45.759Z,25.75
2019-03-08T11:40:45.921Z,25.68
2019-03-08T11:41:45.758Z,25.82
2019-03-08T11:42:45.761Z,25.83
2019-03-08T11:43:45.775Z,25.77
2019-03-08T11:44:46.272Z,25.82
2019-03-08T11:45:45.660Z,25.82
2019-03-08T11:46:45.627Z,25.69
2019-03-08T11:47:45.713Z,25.79
2019-03-08T11:48:46.745Z,25.8
2019-03-08T11:49:47.313Z,25.72
2019-03-08T11:50:45.521Z,25.75
2019-03-08T11:51:45.592Z,25.72
2019-03-08T11:52:45.915Z,25.71
2019-03-08T11:53:45.478Z,25.74
2019-03-08T11:54:45.967Z,25.72
2019-03-08T11:55:46.116Z,25.67
2019-03-08T11:56:45.388Z,25.69
2019-03-08T11:57:45.434Z,25.71
2019-03-08T11:58:45.334Z,25.79
2019-03-08T11:59:46.274Z,25.65
2019-03-08T12:00:45.641Z,25.71
2019-03-08T12:01:45.325Z,25.8
2019-03-08T12:02:46.121Z,25.69
2019-03-08T12:03:45.887Z,25.67
2019-03-08T12:04:46.230Z,25.65
2019-03-08T12:05:44.970Z,25.72
2019-03-08T12:06:45.202Z,25.67
2019-03-08T12:07:47.200Z,25.72
2019-03-08T12:08:45.494Z,25.74
2019-03-08T12:09:45.118Z,25.65
2019-03-08T12:10:45.111Z,25.75
2019-03-08T12:11:45.081Z,25.71
2019-03-08T12:12:46.518Z,25.74
2019-03-08T12:13:45.026Z,25.82
2019-03-08T12:14:45.170Z,25.74
2019-03-08T12:15:44.997Z,25.69
2019-03-08T12:16:45.416Z,25.83
2019-03-08T12:17:44.930Z,25.77
2019-03-08T12:18:44.933Z,25.74
2019-03-08T12:19:44.923Z,25.71
2019-03-08T12:20:44.905Z,25.77
2019-03-08T12:21:44.880Z,25.79
2019-03-08T12:22:44.833Z,25.69
2019-03-08T12:23:44.815Z,25.84
2019-03-08T12:24:45.203Z,25.77
2019-03-08T12:25:45.751Z,25.84
2019-03-08T12:26:44.808Z,25.8
2019-03-08T12:27:45.313Z,25.87
2019-03-08T12:28:44.774Z,25.82
2019-03-08T12:29:45.087Z,25.84
2019-03-08T12:30:45.414Z,25.74
2019-03-08T12:31:44.669Z,25.74
2019-03-08T12:32:44.853Z,25.75
2019-03-08T12:33:44.654Z,25.71
2019-03-08T12:34:45.703Z,25.74
2019-03-08T12:35:44.937Z,25.68
2019-03-08T12:36:44.741Z,25.79
2019-03-08T12:37:44.813Z,25.68
2019-03-08T12:38:45.190Z,25.82
2019-03-08T12:39:44.536Z,25.72
2019-03-08T12:40:45.573Z,25.71
2019-03-08T12:41:45.129Z,25.72
2019-03-08T12:42:44.661Z,25.74
2019-03-08T12:43:45.142Z,25.77
2019-03-08T12:44:44.465Z,25.72
2019-03-08T12:45:45.145Z,25.75
2019-03-08T12:46:44.487Z,25.67
2019-03-08T12:47:44.355Z,25.72
2019-03-08T12:48:44.453Z,25.74
2019-03-08T12:49:44.268Z,25.72
2019-03-08T12:50:44.245Z,25.72
2019-03-08T12:51:45.012Z,25.67
2019-03-08T12:52:44.853Z,25.72
2019-03-08T12:53:44.361Z,25.74
2019-03-08T12:54:44.899Z,25.74
2019-03-08T12:55:44.284Z,25.77
2019-03-08T12:56:44.577Z,25.67